Time;durP1;ratioP1;P1;durP2;ratioP2;P2;SDS_P1;SDS_P2;PMS_P1;PMS_P2;Temp;Humidity;BMP_temperature;BMP_pressure;BME280_temperature;BME280_humidity;BME280_pressure;Samples;Min_cycle;Max_cycle;Signal;HPM_P1;HPM_P2
2022/03/12 00:00:46;;;;;;;;;28.33;25.00;;;;;;;;5101207;28;12192;-74
2022/03/12 00:03:12;;;;;;;;;28.00;26.00;;;;;;;;5101558;28;10647;-74
2022/03/12 00:05:52;;;;;;;;;31.67;25.67;;;;;;;;5101661;28;9630;-74
2022/03/12 00:08:18;;;;;;;;;24.67;21.67;;;;;;;;5082937;28;16002;-74
2022/03/12 00:10:46;;;;;;;;;24.67;18.67;;;;;;;;5082789;28;11150;-74
2022/03/12 00:13:11;;;;;;;;;29.33;27.00;;;;;;;;5101290;28;8866;-73
2022/03/12 00:15:38;;;;;;;;;27.33;22.67;;;;;;;;5101310;28;12467;-74
2022/03/12 00:18:03;;;;;;;;;28.33;19.00;;;;;;;;5082667;28;13505;-74
2022/03/12 00:20:29;;;;;;;;;25.33;21.67;;;;;;;;5100803;28;13363;-74
2022/03/12 00:22:56;;;;;;;;;27.67;23.67;;;;;;;;5100969;28;12343;-74
2022/03/12 00:25:23;;;;;;;;;25.33;20.33;;;;;;;;5101067;28;10615;-74
2022/03/12 00:27:50;;;;;;;;;28.33;22.67;;;;;;;;5100790;28;11463;-75
2022/03/12 00:30:20;;;;;;;;;22.00;17.67;;;;;;;;5101447;28;12604;-74
2022/03/12 00:32:48;;;;;;;;;24.00;19.33;;;;;;;;5101669;28;11618;-75
2022/03/12 00:35:13;;;;;;;;;27.00;25.00;;;;;;;;5100608;28;11468;-74
2022/03/12 00:37:39;;;;;;;;;27.67;20.00;;;;;;;;5100344;28;12203;-75
2022/03/12 00:40:05;;;;;;;;;17.33;16.33;;;;;;;;5100573;28;9751;-75
2022/03/12 00:42:30;;;;;;;;;27.00;23.00;;;;;;;;5100879;28;13269;-75
2022/03/12 00:44:56;;;;;;;;;26.67;21.67;;;;;;;;5100954;28;13357;-75
2022/03/12 00:47:21;;;;;;;;;25.67;22.33;;;;;;;;5082291;28;11893;-75
2022/03/12 00:49:47;;;;;;;;;29.33;24.67;;;;;;;;5101145;28;11384;-75
2022/03/12 00:52:12;;;;;;;;;31.67;30.00;;;;;;;;5082166;28;14004;-75
2022/03/12 00:54:37;;;;;;;;;29.00;24.67;;;;;;;;5100047;28;13352;-74
2022/03/12 00:57:03;;;;;;;;;24.33;23.00;;;;;;;;5100765;28;13245;-74
2022/03/12 00:59:28;;;;;;;;;39.00;27.00;;;;;;;;5100308;28;11426;-74
2022/03/12 01:01:53;;;;;;;;;28.33;24.00;;;;;;;;5081411;28;12712;-74
2022/03/12 01:04:19;;;;;;;;;27.67;25.33;;;;;;;;5081122;28;14631;-73
2022/03/12 01:06:46;;;;;;;;;29.67;26.00;;;;;;;;5100104;28;11596;-74
2022/03/12 01:09:12;;;;;;;;;28.67;27.00;;;;;;;;5100311;28;11823;-74
2022/03/12 01:11:39;;;;;;;;;31.00;26.67;;;;;;;;5097099;28;8828;-73
2022/03/12 01:14:04;;;;;;;;;28.33;20.67;;;;;;;;5091087;28;13329;-73
2022/03/12 01:16:29;;;;;;;;;33.67;24.00;;;;;;;;5090400;28;12464;-73
2022/03/12 01:18:55;;;;;;;;;23.00;18.00;;;;;;;;5090317;28;13410;-73
2022/03/12 01:21:20;;;;;;;;;29.33;24.67;;;;;;;;5091512;28;12726;-72
2022/03/12 01:23:46;;;;;;;;;28.33;23.33;;;;;;;;5090054;28;12214;-73
2022/03/12 01:26:12;;;;;;;;;28.67;26.00;;;;;;;;5092241;28;11546;-73
2022/03/12 01:28:37;;;;;;;;;31.67;24.67;;;;;;;;5094416;28;10352;-74
2022/03/12 01:31:03;;;;;;;;;18.33;17.00;;;;;;;;5097351;28;13511;-74
2022/03/12 01:33:29;;;;;;;;;32.33;27.67;;;;;;;;5098253;28;13598;-74
2022/03/12 01:35:54;;;;;;;;;31.67;28.00;;;;;;;;5100485;28;13298;-74
2022/03/12 01:38:27;;;;;;;;;21.00;20.67;;;;;;;;5098865;28;13739;-74
2022/03/12 01:40:52;;;;;;;;;26.67;18.33;;;;;;;;5100270;28;14031;-74
2022/03/12 01:43:17;;;;;;;;;23.00;18.00;;;;;;;;5099748;28;13334;-74
2022/03/12 01:45:43;;;;;;;;;25.33;20.33;;;;;;;;5099349;28;12699;-74
2022/03/12 01:48:08;;;;;;;;;26.00;16.33;;;;;;;;5099699;28;12737;-74
2022/03/12 01:50:35;;;;;;;;;17.00;12.33;;;;;;;;5081992;28;13613;-73
2022/03/12 01:53:02;;;;;;;;;15.00;14.00;;;;;;;;5100061;28;11583;-75
2022/03/12 01:55:31;;;;;;;;;18.67;15.33;;;;;;;;5099867;28;11715;-74
2022/03/12 01:57:58;;;;;;;;;17.67;13.67;;;;;;;;5099837;28;11474;-73
2022/03/12 02:00:25;;;;;;;;;17.67;14.67;;;;;;;;5100446;28;11442;-74
2022/03/12 02:02:53;;;;;;;;;21.33;19.00;;;;;;;;5100262;28;8918;-73
2022/03/12 02:05:19;;;;;;;;;23.00;17.67;;;;;;;;5100113;28;13285;-74
2022/03/12 02:07:44;;;;;;;;;30.00;24.00;;;;;;;;5099797;28;11358;-74
2022/03/12 02:10:20;;;;;;;;;27.33;21.00;;;;;;;;5099603;28;13247;-74
2022/03/12 02:12:47;;;;;;;;;24.00;20.00;;;;;;;;5098961;28;12671;-73
2022/03/12 02:15:15;;;;;;;;;19.33;14.33;;;;;;;;5099407;28;10621;-73
2022/03/12 02:17:41;;;;;;;;;18.00;13.00;;;;;;;;5098232;28;13647;-73
2022/03/12 02:20:06;;;;;;;;;22.67;14.33;;;;;;;;5099359;28;11615;-74
2022/03/12 02:22:32;;;;;;;;;28.33;24.00;;;;;;;;5099057;28;13951;-74
2022/03/12 02:24:57;;;;;;;;;27.00;25.33;;;;;;;;5099122;28;13323;-73
2022/03/12 02:27:25;;;;;;;;;29.00;22.33;;;;;;;;5099274;28;11426;-72
2022/03/12 02:29:54;;;;;;;;;28.33;23.67;;;;;;;;5099264;28;8752;-74
2022/03/12 02:32:20;;;;;;;;;30.00;22.33;;;;;;;;5099382;28;12193;-74
2022/03/12 02:34:46;;;;;;;;;20.33;18.33;;;;;;;;5099253;28;13250;-74
2022/03/12 02:37:12;;;;;;;;;30.67;26.00;;;;;;;;5099088;28;13970;-73
2022/03/12 02:39:39;;;;;;;;;26.67;20.00;;;;;;;;5080980;28;13734;-74
2022/03/12 02:42:08;;;;;;;;;29.67;24.67;;;;;;;;5099194;28;10621;-73
2022/03/12 02:44:33;;;;;;;;;26.67;18.33;;;;;;;;5099470;28;11491;-73
2022/03/12 02:47:15;;;;;;;;;32.67;26.67;;;;;;;;5099479;28;12398;-74
2022/03/12 02:50:03;;;;;;;;;29.00;25.33;;;;;;;;5098616;28;13299;-73
2022/03/12 02:52:29;;;;;;;;;30.00;25.67;;;;;;;;5098532;28;14088;-74
2022/03/12 02:54:57;;;;;;;;;30.00;29.67;;;;;;;;5098962;28;14682;-74
2022/03/12 02:57:26;;;;;;;;;18.67;16.67;;;;;;;;5080838;28;8788;-74
2022/03/12 02:59:52;;;;;;;;;34.00;27.33;;;;;;;;5098901;28;12552;-74
2022/03/12 03:02:38;;;;;;;;;34.67;24.67;;;;;;;;5099174;28;13355;-74
2022/03/12 03:05:03;;;;;;;;;28.00;22.67;;;;;;;;5080630;28;12780;-74
2022/03/12 03:07:29;;;;;;;;;30.00;26.00;;;;;;;;5098972;28;12394;-74
2022/03/12 03:09:54;;;;;;;;;16.67;13.00;;;;;;;;5080404;28;13622;-74
2022/03/12 03:12:24;;;;;;;;;23.67;17.67;;;;;;;;5079786;28;15396;-74
2022/03/12 03:14:50;;;;;;;;;9.33;7.67;;;;;;;;5099015;28;13394;-74
2022/03/12 03:17:16;;;;;;;;;15.67;13.67;;;;;;;;5098327;28;22446;-74
2022/03/12 03:19:42;;;;;;;;;16.67;14.00;;;;;;;;5098629;28;22758;-74
2022/03/12 03:22:08;;;;;;;;;16.00;14.00;;;;;;;;5099081;28;11390;-74
2022/03/12 03:24:33;;;;;;;;;22.33;20.00;;;;;;;;5099177;28;8800;-73
2022/03/12 03:26:59;;;;;;;;;19.67;14.00;;;;;;;;5098782;28;12508;-74
2022/03/12 03:29:25;;;;;;;;;16.00;13.33;;;;;;;;5100066;28;12199;-74
2022/03/12 03:31:51;;;;;;;;;14.00;11.67;;;;;;;;5102075;28;11679;-74
2022/03/12 03:34:17;;;;;;;;;13.33;13.33;;;;;;;;5102231;28;11417;-75
2022/03/12 03:36:42;;;;;;;;;16.67;12.33;;;;;;;;5084247;28;14049;-74
2022/03/12 03:39:08;;;;;;;;;22.33;21.33;;;;;;;;5102428;28;10915;-74
2022/03/12 03:41:34;;;;;;;;;20.00;17.00;;;;;;;;5083826;28;12597;-74
2022/03/12 03:43:59;;;;;;;;;34.33;24.33;;;;;;;;5101793;28;12714;-74
2022/03/12 03:46:25;;;;;;;;;25.33;21.67;;;;;;;;5102151;28;14387;-73
2022/03/12 03:48:52;;;;;;;;;15.67;14.00;;;;;;;;5101669;28;13265;-74
2022/03/12 03:51:20;;;;;;;;;39.33;28.67;;;;;;;;5102242;28;14683;-74
2022/03/12 03:53:46;;;;;;;;;24.00;20.00;;;;;;;;5101257;28;13303;-74
2022/03/12 03:56:11;;;;;;;;;25.67;24.33;;;;;;;;5083743;28;13476;-73
2022/03/12 03:58:37;;;;;;;;;32.33;27.00;;;;;;;;5101849;28;11398;-74
2022/03/12 04:01:12;;;;;;;;;22.00;19.00;;;;;;;;5101917;28;14307;-74
2022/03/12 04:03:38;;;;;;;;;25.00;19.67;;;;;;;;5101658;28;12478;-73
2022/03/12 04:06:05;;;;;;;;;24.67;19.67;;;;;;;;5101551;28;11735;-73
2022/03/12 04:08:31;;;;;;;;;11.00;11.00;;;;;;;;5082717;28;9490;-73
2022/03/12 04:10:57;;;;;;;;;17.67;11.67;;;;;;;;5101995;28;13719;-75
2022/03/12 04:13:22;;;;;;;;;16.67;11.00;;;;;;;;5100992;28;11514;-73
2022/03/12 04:15:49;;;;;;;;;13.67;11.00;;;;;;;;5101722;28;11376;-73
2022/03/12 04:18:18;;;;;;;;;16.00;10.33;;;;;;;;5102063;28;8760;-74
2022/03/12 04:20:47;;;;;;;;;15.67;10.67;;;;;;;;5083651;28;12865;-73
2022/03/12 04:23:18;;;;;;;;;14.00;12.33;;;;;;;;5102131;28;11456;-73
2022/03/12 04:25:47;;;;;;;;;16.00;11.67;;;;;;;;5101751;28;11502;-73
2022/03/12 04:28:13;;;;;;;;;13.00;11.00;;;;;;;;5102074;28;11499;-73
2022/03/12 04:30:38;;;;;;;;;14.00;12.67;;;;;;;;5101750;28;11346;-74
2022/03/12 04:33:03;;;;;;;;;10.00;8.67;;;;;;;;5101874;28;11777;-74
2022/03/12 04:35:29;;;;;;;;;15.67;12.33;;;;;;;;5101128;28;22162;-73
2022/03/12 04:37:54;;;;;;;;;14.00;10.00;;;;;;;;5100975;28;21629;-73
2022/03/12 04:40:23;;;;;;;;;10.67;10.00;;;;;;;;5100917;28;11410;-75
2022/03/12 04:42:49;;;;;;;;;14.67;10.00;;;;;;;;5100328;28;9445;-73
2022/03/12 04:45:15;;;;;;;;;10.67;10.00;;;;;;;;5100993;28;8873;-73
2022/03/12 04:47:42;;;;;;;;;8.67;8.00;;;;;;;;5100911;28;9609;-73
2022/03/12 04:50:07;;;;;;;;;12.33;10.67;;;;;;;;5101223;28;22259;-73
2022/03/12 04:52:34;;;;;;;;;17.33;13.00;;;;;;;;5098675;28;22406;-74
2022/03/12 04:55:07;;;;;;;;;17.00;12.67;;;;;;;;5089188;28;12189;-73
2022/03/12 04:57:32;;;;;;;;;21.33;21.33;;;;;;;;5089396;28;10416;-74
2022/03/12 04:59:58;;;;;;;;;21.00;19.67;;;;;;;;5088710;28;13401;-74
2022/03/12 05:02:23;;;;;;;;;25.67;22.33;;;;;;;;5090716;28;13527;-72
2022/03/12 05:04:49;;;;;;;;;24.33;19.00;;;;;;;;5088868;28;12422;-72
2022/03/12 05:07:15;;;;;;;;;22.00;20.00;;;;;;;;5089175;28;13619;-73
2022/03/12 05:09:40;;;;;;;;;22.67;19.67;;;;;;;;5085787;28;11823;-72
2022/03/12 05:12:07;;;;;;;;;22.67;18.67;;;;;;;;5087872;28;12526;-72
2022/03/12 05:14:34;;;;;;;;;26.67;19.67;;;;;;;;5073981;28;8874;-72
2022/03/12 05:17:03;;;;;;;;;20.00;15.67;;;;;;;;5067480;28;11141;-72
2022/03/12 05:19:29;;;;;;;;;26.33;23.00;;;;;;;;5087531;28;11704;-73
2022/03/12 05:21:54;;;;;;;;;18.67;16.00;;;;;;;;5089826;28;12547;-73
2022/03/12 05:24:19;;;;;;;;;28.33;19.67;;;;;;;;5088718;28;12468;-73
2022/03/12 05:26:45;;;;;;;;;25.33;17.33;;;;;;;;5085563;28;14595;-73
2022/03/12 05:29:10;;;;;;;;;29.33;22.00;;;;;;;;5085940;28;12633;-73
2022/03/12 05:31:36;;;;;;;;;25.00;22.00;;;;;;;;5069851;28;12578;-74
2022/03/12 05:34:01;;;;;;;;;25.00;19.00;;;;;;;;5089210;28;9084;-73
2022/03/12 05:36:26;;;;;;;;;25.00;20.67;;;;;;;;5087899;28;8830;-73
2022/03/12 05:38:51;;;;;;;;;19.33;16.00;;;;;;;;5088006;28;10157;-73
2022/03/12 05:41:17;;;;;;;;;19.00;16.00;;;;;;;;5088145;28;13464;-73
2022/03/12 05:43:46;;;;;;;;;27.67;21.00;;;;;;;;5088868;28;8823;-73
2022/03/12 05:46:16;;;;;;;;;21.67;19.00;;;;;;;;5089956;28;12638;-73
2022/03/12 05:48:43;;;;;;;;;21.33;17.33;;;;;;;;5088320;28;9651;-73
2022/03/12 05:51:09;;;;;;;;;17.67;14.33;;;;;;;;5089569;28;10461;-73
2022/03/12 05:53:35;;;;;;;;;19.67;14.67;;;;;;;;5068083;28;14397;-74
2022/03/12 05:56:01;;;;;;;;;19.00;15.33;;;;;;;;5087434;28;11596;-73
2022/03/12 05:58:26;;;;;;;;;23.33;21.00;;;;;;;;5079207;28;11509;-74
2022/03/12 06:00:54;;;;;;;;;22.00;18.00;;;;;;;;5079155;28;13734;-74
2022/03/12 06:03:20;;;;;;;;;24.33;15.33;;;;;;;;5079649;28;11691;-73
2022/03/12 06:05:46;;;;;;;;;17.33;16.67;;;;;;;;5080774;28;12151;-74
2022/03/12 06:08:14;;;;;;;;;20.00;16.33;;;;;;;;5098893;28;13191;-73
2022/03/12 06:10:46;;;;;;;;;19.67;13.00;;;;;;;;5098961;28;14654;-75
2022/03/12 06:13:11;;;;;;;;;16.00;14.33;;;;;;;;5080005;28;14820;-75
2022/03/12 06:15:38;;;;;;;;;23.00;20.33;;;;;;;;5098893;28;11346;-74
2022/03/12 06:18:03;;;;;;;;;19.00;16.33;;;;;;;;5099177;28;10883;-74
2022/03/12 06:20:28;;;;;;;;;14.00;12.67;;;;;;;;5099005;28;10564;-74
2022/03/12 06:22:54;;;;;;;;;16.67;12.00;;;;;;;;5080716;28;11423;-74
2022/03/12 06:25:20;;;;;;;;;16.00;12.67;;;;;;;;5098751;28;11369;-73
2022/03/12 06:27:54;;;;;;;;;16.67;11.67;;;;;;;;5099445;28;8768;-73
2022/03/12 06:30:20;;;;;;;;;18.00;13.00;;;;;;;;5099421;28;9634;-74
2022/03/12 06:32:46;;;;;;;;;13.67;12.33;;;;;;;;5099221;28;11442;-74
2022/03/12 06:35:12;;;;;;;;;16.33;12.33;;;;;;;;5096874;28;11588;-73
2022/03/12 06:37:38;;;;;;;;;17.67;15.67;;;;;;;;5088785;28;9076;-74
2022/03/12 06:40:07;;;;;;;;;16.00;16.00;;;;;;;;5066660;28;13591;-72
2022/03/12 06:42:34;;;;;;;;;21.67;17.33;;;;;;;;5086030;28;11454;-73
2022/03/12 06:45:00;;;;;;;;;20.33;19.00;;;;;;;;5087057;28;13485;-72
2022/03/12 06:47:29;;;;;;;;;20.00;17.00;;;;;;;;5092578;28;12239;-73
2022/03/12 06:49:56;;;;;;;;;19.33;16.67;;;;;;;;5066638;28;11895;-72
2022/03/12 06:52:21;;;;;;;;;28.67;18.33;;;;;;;;5088149;28;13460;-73
2022/03/12 06:54:47;;;;;;;;;14.00;13.33;;;;;;;;5090700;28;13280;-72
2022/03/12 06:57:12;;;;;;;;;17.00;17.00;;;;;;;;5084482;28;12526;-72
2022/03/12 06:59:37;;;;;;;;;20.00;16.67;;;;;;;;5085838;28;11493;-75
2022/03/12 07:02:03;;;;;;;;;17.67;14.00;;;;;;;;5085533;28;13503;-72
2022/03/12 07:04:28;;;;;;;;;17.67;16.00;;;;;;;;5078914;28;13498;-72
2022/03/12 07:06:54;;;;;;;;;14.00;13.00;;;;;;;;5089084;28;8800;-73
2022/03/12 07:09:19;;;;;;;;;16.00;14.00;;;;;;;;5088655;28;10364;-73
2022/03/12 07:11:44;;;;;;;;;22.33;16.00;;;;;;;;5088245;28;8803;-73
2022/03/12 07:14:10;;;;;;;;;15.33;13.67;;;;;;;;5085258;28;12509;-72
2022/03/12 07:16:37;;;;;;;;;14.67;13.33;;;;;;;;5082845;28;84611;-72
2022/03/12 07:19:03;;;;;;;;;17.00;14.00;;;;;;;;5085910;28;11559;-73
2022/03/12 07:21:29;;;;;;;;;21.33;16.67;;;;;;;;5086921;28;11441;-74
2022/03/12 07:23:55;;;;;;;;;19.00;14.67;;;;;;;;5085244;28;13297;-75
2022/03/12 07:26:20;;;;;;;;;22.00;19.33;;;;;;;;5066705;28;14394;-74
2022/03/12 07:28:47;;;;;;;;;19.00;16.00;;;;;;;;5083305;28;13635;-74
2022/03/12 07:31:15;;;;;;;;;20.67;17.67;;;;;;;;5066118;28;14024;-73
2022/03/12 07:33:41;;;;;;;;;29.00;22.00;;;;;;;;5083313;28;13381;-73
2022/03/12 07:36:06;;;;;;;;;20.67;18.33;;;;;;;;5085311;28;13327;-75
2022/03/12 07:38:32;;;;;;;;;27.33;25.00;;;;;;;;5087724;28;12342;-73
2022/03/12 07:40:57;;;;;;;;;25.67;19.67;;;;;;;;5086503;28;12740;-72
2022/03/12 07:43:23;;;;;;;;;20.00;19.00;;;;;;;;5068401;28;12669;-73
2022/03/12 07:45:48;;;;;;;;;13.33;8.33;;;;;;;;5069491;28;14660;-71
2022/03/12 07:48:13;;;;;;;;;17.00;14.00;;;;;;;;5086256;28;23801;-73
2022/03/12 07:50:39;;;;;;;;;19.33;16.67;;;;;;;;5085581;28;21487;-74
2022/03/12 07:53:05;;;;;;;;;19.67;16.00;;;;;;;;5087499;28;11447;-74
2022/03/12 07:55:30;;;;;;;;;19.67;17.67;;;;;;;;5004290;28;12756;-73
2022/03/12 07:57:56;;;;;;;;;17.00;13.00;;;;;;;;5077520;28;9263;-73
2022/03/12 08:00:21;;;;;;;;;14.00;10.33;;;;;;;;5063809;28;13483;-72
2022/03/12 08:02:48;;;;;;;;;20.00;15.33;;;;;;;;5077752;28;11593;-73
2022/03/12 08:05:15;;;;;;;;;21.67;18.00;;;;;;;;5085881;28;10593;-73
2022/03/12 08:07:41;;;;;;;;;26.67;21.67;;;;;;;;5084865;28;11601;-73
2022/03/12 08:10:07;;;;;;;;;27.00;20.67;;;;;;;;5085500;28;12938;-74
2022/03/12 08:12:34;;;;;;;;;24.00;20.00;;;;;;;;5073553;22;10415;-74
2022/03/12 08:15:02;;;;;;;;;25.33;18.00;;;;;;;;5016764;28;11803;-75
2022/03/12 08:17:28;;;;;;;;;21.33;17.33;;;;;;;;5019802;28;11460;-72
2022/03/12 08:19:54;;;;;;;;;22.67;21.67;;;;;;;;5024617;28;11622;-73
2022/03/12 08:22:20;;;;;;;;;23.00;23.00;;;;;;;;5038914;28;14659;-76
2022/03/12 08:24:46;;;;;;;;;28.67;21.67;;;;;;;;5040621;28;11463;-75
2022/03/12 08:27:14;;;;;;;;;21.33;20.33;;;;;;;;5020902;28;11355;-75
2022/03/12 08:29:40;;;;;;;;;21.50;20.25;;;;;;;;5024650;28;12978;-75
2022/03/12 08:32:08;;;;;;;;;23.25;19.00;;;;;;;;5031617;28;11602;-75
2022/03/12 08:34:34;;;;;;;;;18.50;16.75;;;;;;;;5031311;28;12539;-75
2022/03/12 08:36:59;;;;;;;;;22.75;21.00;;;;;;;;5030129;28;13302;-76
2022/03/12 08:39:25;;;;;;;;;22.00;20.00;;;;;;;;5028912;28;13380;-75
2022/03/12 08:41:50;;;;;;;;;27.00;22.25;;;;;;;;5027654;28;10015;-75
2022/03/12 08:44:16;;;;;;;;;22.75;21.00;;;;;;;;5027807;28;11387;-76
2022/03/12 08:46:46;;;;;;;;;19.25;19.00;;;;;;;;5022969;28;12445;-73
2022/03/12 08:49:12;;;;;;;;;21.00;18.00;;;;;;;;5018879;28;12004;-77
2022/03/12 08:51:38;;;;;;;;;26.50;22.00;;;;;;;;5045516;28;12342;-75
2022/03/12 08:54:03;;;;;;;;;21.50;19.50;;;;;;;;5059176;28;12890;-73
2022/03/12 08:56:29;;;;;;;;;25.50;19.25;;;;;;;;5041167;28;12326;-78
2022/03/12 08:58:54;;;;;;;;;23.00;21.25;;;;;;;;5039723;28;11756;-77
2022/03/12 09:01:21;;;;;;;;;21.00;21.00;;;;;;;;5040204;28;11964;-75
2022/03/12 09:03:46;;;;;;;;;20.75;19.50;;;;;;;;5039559;28;11741;-73
2022/03/12 09:06:12;;;;;;;;;19.50;17.25;;;;;;;;5039181;28;12397;-72
2022/03/12 09:08:37;;;;;;;;;22.50;19.00;;;;;;;;5028070;28;13210;-74
2022/03/12 09:11:04;;;;;;;;;25.50;21.75;;;;;;;;5018352;28;16374;-77
2022/03/12 09:13:29;;;;;;;;;20.75;20.75;;;;;;;;5017969;28;14288;-76
2022/03/12 09:15:55;;;;;;;;;22.25;20.25;;;;;;;;5036356;28;11548;-75
2022/03/12 09:18:21;;;;;;;;;18.50;18.25;;;;;;;;5039613;28;11790;-76
2022/03/12 09:20:47;;;;;;;;;22.50;19.00;;;;;;;;5039069;28;12774;-73
2022/03/12 09:23:15;;;;;;;;;22.25;21.00;;;;;;;;5039204;28;14579;-72
2022/03/12 09:25:42;;;;;;;;;19.75;19.50;;;;;;;;5029476;28;13752;-74
2022/03/12 09:28:08;;;;;;;;;20.75;19.25;;;;;;;;5020160;28;14446;-74
2022/03/12 09:30:33;;;;;;;;;18.25;18.00;;;;;;;;5031644;28;15365;-74
2022/03/12 09:32:59;;;;;;;;;22.75;21.75;;;;;;;;5019494;28;16609;-74
2022/03/12 09:35:24;;;;;;;;;23.00;23.00;;;;;;;;5042416;28;13374;-73
2022/03/12 09:37:49;;;;;;;;;20.50;20.00;;;;;;;;5055217;28;12205;-74
2022/03/12 09:40:15;;;;;;;;;19.75;19.00;;;;;;;;5028226;28;12380;-74
2022/03/12 09:42:41;;;;;;;;;19.50;19.50;;;;;;;;5017741;28;14663;-75
2022/03/12 09:45:07;;;;;;;;;22.00;22.00;;;;;;;;5038660;28;9708;-78
2022/03/12 09:47:32;;;;;;;;;20.75;19.00;;;;;;;;5038631;28;13317;-76
2022/03/12 09:49:58;;;;;;;;;19.67;19.67;;;;;;;;5040214;28;12607;-75
2022/03/12 09:52:23;;;;;;;;;19.00;18.67;;;;;;;;5038571;28;13220;-75
2022/03/12 09:54:49;;;;;;;;;22.67;22.33;;;;;;;;5037330;28;9748;-77
2022/03/12 09:57:15;;;;;;;;;19.00;18.00;;;;;;;;5037109;28;13419;-79
2022/03/12 09:59:40;;;;;;;;;19.67;19.67;;;;;;;;5039299;28;13546;-81
2022/03/12 10:02:05;;;;;;;;;19.33;19.33;;;;;;;;5038042;28;10874;-82
2022/03/12 10:04:31;;;;;;;;;22.00;20.67;;;;;;;;5042872;28;8888;-80
2022/03/12 10:06:56;;;;;;;;;20.33;19.67;;;;;;;;5059087;28;13226;-81
2022/03/12 10:09:22;;;;;;;;;20.00;19.33;;;;;;;;5052441;28;11678;-81
2022/03/12 10:11:51;;;;;;;;;22.00;21.00;;;;;;;;5038440;28;9588;-82
2022/03/12 10:14:17;;;;;;;;;21.33;20.67;;;;;;;;5032546;28;12327;-78
2022/03/12 10:16:42;;;;;;;;;20.33;20.33;;;;;;;;5042640;28;13415;-78
2022/03/12 10:19:07;;;;;;;;;18.67;18.00;;;;;;;;5029516;28;11435;-79
2022/03/12 10:21:35;;;;;;;;;20.33;19.67;;;;;;;;5027142;28;13486;-78
2022/03/12 10:24:02;;;;;;;;;20.25;19.00;;;;;;;;5027873;28;13575;-80
2022/03/12 10:26:28;;;;;;;;;18.75;18.75;;;;;;;;5029005;28;8802;-81
2022/03/12 10:28:53;;;;;;;;;22.25;20.75;;;;;;;;5027282;28;13303;-80
2022/03/12 10:31:19;;;;;;;;;22.00;21.00;;;;;;;;5027435;28;11658;-80
2022/03/12 10:33:46;;;;;;;;;22.50;19.75;;;;;;;;5030549;28;10954;-80
2022/03/12 10:36:13;;;;;;;;;21.50;19.00;;;;;;;;5029319;28;12302;-80
2022/03/12 10:38:43;;;;;;;;;20.75;18.75;;;;;;;;5027449;28;11801;-81
2022/03/12 10:41:09;;;;;;;;;17.50;17.50;;;;;;;;5024666;28;14414;-79
2022/03/12 10:43:45;;;;;;;;;22.00;20.00;;;;;;;;5025781;28;15028;-80
2022/03/12 10:46:14;;;;;;;;;17.00;17.00;;;;;;;;5024329;28;15495;-79
2022/03/12 10:48:40;;;;;;;;;24.00;21.00;;;;;;;;5025681;28;12498;-79
2022/03/12 10:51:05;;;;;;;;;17.33;17.33;;;;;;;;5024556;28;10358;-78
2022/03/12 10:53:31;;;;;;;;;17.67;16.00;;;;;;;;5017855;28;13323;-80
2022/03/12 10:55:56;;;;;;;;;23.00;21.33;;;;;;;;5020928;28;10826;-75
2022/03/12 10:58:24;;;;;;;;;19.00;19.00;;;;;;;;5024867;28;14831;-74
2022/03/12 11:00:51;;;;;;;;;22.67;21.00;;;;;;;;5017775;28;13398;-75
2022/03/12 11:03:20;;;;;;;;;20.25;19.50;;;;;;;;5019922;28;12308;-78
2022/03/12 11:05:47;;;;;;;;;18.00;18.00;;;;;;;;5030801;28;12407;-75
2022/03/12 11:08:16;;;;;;;;;19.00;18.50;;;;;;;;5035089;28;14426;-77
2022/03/12 11:10:52;;;;;;;;;19.50;18.00;;;;;;;;5031613;28;11853;-77
2022/03/12 11:13:24;;;;;;;;;25.50;21.75;;;;;;;;5033264;28;10336;-80
2022/03/12 11:16:02;;;;;;;;;20.75;20.00;;;;;;;;5037649;28;13617;-80
2022/03/12 11:18:28;;;;;;;;;20.75;18.00;;;;;;;;5035508;28;11871;-80
2022/03/12 11:20:53;;;;;;;;;24.00;19.25;;;;;;;;5036906;28;11026;-81
2022/03/12 11:23:27;;;;;;;;;14.50;14.50;;;;;;;;5037493;28;11720;-76
2022/03/12 11:25:58;;;;;;;;;19.00;16.25;;;;;;;;5037512;28;13498;-76
2022/03/12 11:28:24;;;;;;;;;19.25;18.50;;;;;;;;5036254;28;11716;-78
2022/03/12 11:30:50;;;;;;;;;22.00;18.75;;;;;;;;5037355;28;11549;-75
2022/03/12 11:33:16;;;;;;;;;18.75;16.75;;;;;;;;5037096;28;13749;-74
2022/03/12 11:35:46;;;;;;;;;19.00;16.25;;;;;;;;5037723;28;12190;-74
2022/03/12 11:38:19;;;;;;;;;21.50;18.75;;;;;;;;5037397;28;10838;-76
2022/03/12 11:40:46;;;;;;;;;20.75;17.00;;;;;;;;5037140;28;12338;-73
2022/03/12 11:43:26;;;;;;;;;20.00;17.00;;;;;;;;5036941;28;11588;-72
2022/03/12 11:45:59;;;;;;;;;16.75;13.75;;;;;;;;5037050;28;11547;-74
2022/03/12 11:48:24;;;;;;;;;19.25;16.75;;;;;;;;5034227;28;15425;-73
2022/03/12 11:50:50;;;;;;;;;19.50;18.75;;;;;;;;5034502;28;12272;-76
2022/03/12 11:53:17;;;;;;;;;17.25;13.75;;;;;;;;5038976;28;9839;-74
2022/03/12 11:55:42;;;;;;;;;18.00;16.75;;;;;;;;5037693;28;12267;-74
2022/03/12 11:58:07;;;;;;;;;17.50;17.00;;;;;;;;5039102;28;12365;-73
2022/03/12 12:00:33;;;;;;;;;19.00;14.50;;;;;;;;5039198;28;11884;-73
2022/03/12 12:03:01;;;;;;;;;16.50;15.75;;;;;;;;5039197;28;11512;-73
2022/03/12 12:05:30;;;;;;;;;19.75;16.50;;;;;;;;4990715;28;11643;-74
2022/03/12 12:07:56;;;;;;;;;15.00;14.00;;;;;;;;5039568;28;11555;-73
2022/03/12 12:10:27;;;;;;;;;18.00;16.25;;;;;;;;5040670;28;11583;-73
2022/03/12 12:12:53;;;;;;;;;15.75;14.75;;;;;;;;5036335;28;13195;-74
2022/03/12 12:15:23;;;;;;;;;15.00;14.25;;;;;;;;5038692;28;11535;-72
2022/03/12 12:17:55;;;;;;;;;14.50;14.25;;;;;;;;5038854;28;8789;-72
2022/03/12 12:20:22;;;;;;;;;15.75;15.00;;;;;;;;4978492;28;11657;-73
2022/03/12 12:22:48;;;;;;;;;14.25;13.75;;;;;;;;5047026;28;14525;-74
2022/03/12 12:25:15;;;;;;;;;16.50;15.00;;;;;;;;5043382;28;13247;-73
2022/03/12 12:27:42;;;;;;;;;13.50;13.00;;;;;;;;5026634;28;11540;-74
2022/03/12 12:30:09;;;;;;;;;15.00;14.00;;;;;;;;5034654;28;11555;-76
2022/03/12 12:32:43;;;;;;;;;15.00;14.25;;;;;;;;5039778;28;11558;-75
2022/03/12 12:35:18;;;;;;;;;14.75;13.75;;;;;;;;5037415;28;11640;-76
2022/03/12 12:37:48;;;;;;;;;20.25;16.50;;;;;;;;5030386;28;11648;-76
2022/03/12 12:40:16;;;;;;;;;22.00;19.50;;;;;;;;5036391;28;13537;-74
2022/03/12 12:42:42;;;;;;;;;17.00;16.00;;;;;;;;5039667;28;11668;-74
2022/03/12 12:45:11;;;;;;;;;14.50;12.25;;;;;;;;5033226;28;13196;-74
2022/03/12 12:47:37;;;;;;;;;20.00;15.50;;;;;;;;4979382;28;11643;-74
2022/03/12 12:50:03;;;;;;;;;19.00;17.00;;;;;;;;5030293;28;13276;-75
2022/03/12 12:52:35;;;;;;;;;16.50;14.75;;;;;;;;5018513;28;13960;-74
2022/03/12 12:55:01;;;;;;;;;12.25;12.00;;;;;;;;5028676;28;11555;-73
2022/03/12 12:57:53;;;;;;;;;16.00;13.25;;;;;;;;5033938;28;12579;-74
2022/03/12 13:00:21;;;;;;;;;19.50;14.25;;;;;;;;5030020;28;12350;-73
2022/03/12 13:02:46;;;;;;;;;18.75;15.50;;;;;;;;5029053;28;12321;-76
2022/03/12 13:05:14;;;;;;;;;15.50;14.25;;;;;;;;5022888;28;11618;-74
2022/03/12 13:07:58;;;;;;;;;17.50;16.00;;;;;;;;5022703;28;12194;-73
2022/03/12 13:10:27;;;;;;;;;13.25;12.75;;;;;;;;5034504;28;11775;-75
2022/03/12 13:13:06;;;;;;;;;16.25;14.50;;;;;;;;5025659;28;14709;-73
2022/03/12 13:15:36;;;;;;;;;16.75;15.50;;;;;;;;5036854;28;11648;-75
2022/03/12 13:18:10;;;;;;;;;21.25;18.50;;;;;;;;5052215;28;11550;-75
2022/03/12 13:20:41;;;;;;;;;18.00;13.25;;;;;;;;5037242;28;11662;-73
2022/03/12 13:23:07;;;;;;;;;13.75;12.50;;;;;;;;5033367;28;13316;-75
2022/03/12 13:25:44;;;;;;;;;13.50;11.25;;;;;;;;5038068;28;11575;-74
2022/03/12 13:28:12;;;;;;;;;15.75;13.75;;;;;;;;5033532;28;12231;-74
2022/03/12 13:30:41;;;;;;;;;13.25;13.25;;;;;;;;5027482;28;11571;-75
2022/03/12 13:33:07;;;;;;;;;16.00;15.00;;;;;;;;5029892;28;11570;-75
2022/03/12 13:35:33;;;;;;;;;11.25;11.25;;;;;;;;5036958;28;12273;-75
2022/03/12 13:37:59;;;;;;;;;17.00;14.50;;;;;;;;5037523;28;11548;-75
2022/03/12 13:40:25;;;;;;;;;18.25;15.00;;;;;;;;5029145;28;11718;-75
2022/03/12 13:42:52;;;;;;;;;14.25;13.75;;;;;;;;5034720;28;11617;-77
2022/03/12 13:45:18;;;;;;;;;16.50;15.00;;;;;;;;5036845;28;11546;-75
2022/03/12 13:47:48;;;;;;;;;14.25;14.25;;;;;;;;5030800;28;11627;-73
2022/03/12 13:50:14;;;;;;;;;6.25;5.75;;;;;;;;5028688;28;11583;-74
2022/03/12 13:52:39;;;;;;;;;20.75;16.75;;;;;;;;5031770;28;24517;-74
2022/03/12 13:55:05;;;;;;;;;20.25;16.25;;;;;;;;5028907;28;22525;-73
2022/03/12 13:57:39;;;;;;;;;17.25;14.50;;;;;;;;5032970;28;8801;-73
2022/03/12 14:00:07;;;;;;;;;17.00;14.00;;;;;;;;5029930;28;13305;-74
2022/03/12 14:02:34;;;;;;;;;15.25;11.50;;;;;;;;5028721;28;11533;-73
2022/03/12 14:05:00;;;;;;;;;15.75;15.75;;;;;;;;5030594;28;12553;-74
2022/03/12 14:07:25;;;;;;;;;17.50;13.25;;;;;;;;5030722;28;11652;-74
2022/03/12 14:09:51;;;;;;;;;13.25;13.25;;;;;;;;5023163;28;10738;-74
2022/03/12 14:12:18;;;;;;;;;15.00;13.25;;;;;;;;5037060;28;9395;-74
2022/03/12 14:14:45;;;;;;;;;15.50;12.50;;;;;;;;5052803;28;8960;-72
2022/03/12 14:17:10;;;;;;;;;22.50;17.00;;;;;;;;5039499;28;11671;-73